createdAt,value
2023-05-21T00:02:00.907Z,6.33
2023-05-21T00:04:31.721Z,6.97
2023-05-21T00:06:59.790Z,6.33
2023-05-21T00:09:29.551Z,6.60
2023-05-21T00:11:57.862Z,6.17
2023-05-21T00:14:26.012Z,6.23
2023-05-21T00:16:54.060Z,6.60
2023-05-21T00:19:22.439Z,6.37
2023-05-21T00:21:53.907Z,6.23
2023-05-21T00:24:22.156Z,6.40
2023-05-21T00:26:51.509Z,5.93
2023-05-21T00:29:20.284Z,6.80
2023-05-21T00:31:48.774Z,6.47
2023-05-21T00:34:18.223Z,6.37
2023-05-21T00:36:47.103Z,6.73
2023-05-21T00:39:15.650Z,5.93
2023-05-21T00:41:46.722Z,6.33
2023-05-21T00:44:17.261Z,6.53
2023-05-21T00:46:48.947Z,6.23
2023-05-21T00:49:17.900Z,6.50
2023-05-21T00:51:49.826Z,6.87
2023-05-21T00:54:20.708Z,6.93
2023-05-21T00:56:49.979Z,6.50
2023-05-21T00:59:20.145Z,7.07
2023-05-21T01:01:54.109Z,6.53
2023-05-21T01:04:22.410Z,6.20
2023-05-21T01:06:56.659Z,6.53
2023-05-21T01:09:25.351Z,5.73
2023-05-21T01:11:57.886Z,5.63
2023-05-21T01:14:28.238Z,6.33
2023-05-21T01:16:56.930Z,6.17
2023-05-21T01:19:26.124Z,6.17
2023-05-21T01:22:01.598Z,6.20
2023-05-21T01:24:31.510Z,5.97
2023-05-21T01:27:00.376Z,6.27
2023-05-21T01:29:28.935Z,5.83
2023-05-21T01:32:04.206Z,6.13
2023-05-21T01:34:36.653Z,5.40
2023-05-21T01:37:15.728Z,5.70
2023-05-21T01:39:49.205Z,6.00
2023-05-21T01:42:20.033Z,6.20
2023-05-21T01:44:48.829Z,6.27
2023-05-21T01:47:19.148Z,5.57
2023-05-21T01:49:47.846Z,5.47
2023-05-21T01:52:16.086Z,6.07
2023-05-21T01:54:45.537Z,5.97
2023-05-21T01:57:13.808Z,5.90
2023-05-21T01:59:42.443Z,5.67
2023-05-21T02:02:10.549Z,6.10
2023-05-21T02:04:41.555Z,5.67
2023-05-21T02:07:10.387Z,6.33
2023-05-21T02:09:38.360Z,6.37
2023-05-21T02:12:09.978Z,5.93
2023-05-21T02:14:38.514Z,6.20
2023-05-21T02:17:08.193Z,5.67
2023-05-21T02:19:36.898Z,6.20
2023-05-21T02:22:05.146Z,5.73
2023-05-21T02:24:33.327Z,5.53
2023-05-21T02:27:01.388Z,5.20
2023-05-21T02:29:30.985Z,5.73
2023-05-21T02:31:59.079Z,5.40
2023-05-21T02:34:30.533Z,5.73
2023-05-21T02:36:58.931Z,5.50
2023-05-21T02:39:27.391Z,4.87
2023-05-21T02:41:55.363Z,5.20
2023-05-21T02:44:24.361Z,5.30
2023-05-21T02:46:53.900Z,4.90
2023-05-21T02:49:22.022Z,5.47
2023-05-21T02:51:50.054Z,5.33
2023-05-21T02:54:18.061Z,5.20
2023-05-21T02:56:46.276Z,4.83
2023-05-21T02:59:14.397Z,5.43
2023-05-21T03:01:45.543Z,5.07
2023-05-21T03:04:15.312Z,4.93
2023-05-21T03:06:43.318Z,5.97
2023-05-21T03:09:11.389Z,5.60
2023-05-21T03:11:39.470Z,5.30
2023-05-21T03:14:09.969Z,5.17
2023-05-21T03:16:38.219Z,4.97
2023-05-21T03:19:06.667Z,4.77
2023-05-21T03:21:36.828Z,4.87
2023-05-21T03:24:05.998Z,5.10
2023-05-21T03:26:34.041Z,4.50
2023-05-21T03:29:02.420Z,4.40
2023-05-21T03:31:30.386Z,4.90
2023-05-21T03:33:58.320Z,4.90
2023-05-21T03:36:26.315Z,4.73
2023-05-21T03:38:55.757Z,4.87
2023-05-21T03:41:23.816Z,5.03
2023-05-21T03:43:51.735Z,5.03
2023-05-21T03:46:19.721Z,4.80
2023-05-21T03:48:47.625Z,5.23
2023-05-21T03:51:16.064Z,4.73
2023-05-21T03:53:44.012Z,4.67
2023-05-21T03:56:13.513Z,5.50
2023-05-21T03:58:41.546Z,5.00
2023-05-21T04:01:10.823Z,5.10
2023-05-21T04:03:40.754Z,5.50
2023-05-21T04:06:10.368Z,4.80
2023-05-21T04:08:38.603Z,5.17
2023-05-21T04:11:06.632Z,4.90
2023-05-21T04:13:36.287Z,4.70
2023-05-21T04:16:04.286Z,4.80
2023-05-21T04:18:34.332Z,4.90
2023-05-21T04:21:02.493Z,4.30
2023-05-21T04:23:30.319Z,4.83
2023-05-21T04:25:58.276Z,4.33
2023-05-21T04:28:28.973Z,5.10
2023-05-21T04:30:58.784Z,5.27
2023-05-21T04:33:27.160Z,4.77
2023-05-21T04:35:55.234Z,4.60
2023-05-21T04:38:23.276Z,5.10
2023-05-21T04:40:52.090Z,5.43
2023-05-21T04:43:25.653Z,5.50
2023-05-21T04:45:54.862Z,6.03
2023-05-21T04:48:25.726Z,5.20
2023-05-21T04:50:54.237Z,5.40
2023-05-21T04:53:22.297Z,5.53
2023-05-21T04:55:50.314Z,5.50
2023-05-21T04:58:19.396Z,5.07
2023-05-21T05:00:47.569Z,6.17
2023-05-21T05:03:15.808Z,5.27
2023-05-21T05:05:45.295Z,5.80
2023-05-21T05:08:15.519Z,5.73
2023-05-21T05:10:43.977Z,6.37
2023-05-21T05:13:15.113Z,6.27
2023-05-21T05:15:43.035Z,6.97
2023-05-21T05:18:11.679Z,6.33
2023-05-21T05:20:39.683Z,6.40
2023-05-21T05:23:09.003Z,5.90
2023-05-21T05:25:37.358Z,6.77
2023-05-21T05:28:05.950Z,7.20
2023-05-21T05:30:34.173Z,7.27
2023-05-21T05:33:02.230Z,7.73
2023-05-21T05:35:30.328Z,7.20
2023-05-21T05:37:58.244Z,7.57
2023-05-21T05:40:27.845Z,7.73
2023-05-21T05:42:55.786Z,7.67
2023-05-21T05:45:23.771Z,8.07
2023-05-21T05:47:51.838Z,7.20
2023-05-21T05:50:19.990Z,8.03
2023-05-21T05:52:48.228Z,8.40
2023-05-21T05:55:16.339Z,8.13
2023-05-21T05:57:45.855Z,8.93
2023-05-21T06:00:16.009Z,8.17
2023-05-21T06:02:44.095Z,9.50
2023-05-21T06:05:12.388Z,8.37
2023-05-21T06:07:42.096Z,9.83
2023-05-21T06:10:10.889Z,8.93
2023-05-21T06:12:40.074Z,9.47
2023-05-21T06:15:10.809Z,9.57
2023-05-21T06:17:39.176Z,10.57
2023-05-21T06:20:09.700Z,10.00
2023-05-21T06:22:38.125Z,9.67
2023-05-21T06:25:07.207Z,10.20
2023-05-21T06:27:35.297Z,10.17
2023-05-21T06:30:03.456Z,10.03
2023-05-21T06:32:32.995Z,10.87
2023-05-21T06:35:01.274Z,10.23
2023-05-21T06:37:29.747Z,10.30
2023-05-21T06:39:58.091Z,11.17
2023-05-21T06:42:26.268Z,11.67
2023-05-21T06:44:54.374Z,11.70
2023-05-21T06:47:22.706Z,11.47
2023-05-21T06:49:52.320Z,12.20
2023-05-21T06:52:20.389Z,11.30
2023-05-21T06:54:48.402Z,13.17
2023-05-21T06:57:17.362Z,12.83
2023-05-21T06:59:45.516Z,13.00
2023-05-21T07:02:13.482Z,12.10
2023-05-21T07:04:41.571Z,12.47
2023-05-21T07:07:11.033Z,12.90
2023-05-21T07:09:39.216Z,13.40
2023-05-21T07:12:08.681Z,12.97
2023-05-21T07:14:36.755Z,14.07
2023-05-21T07:17:04.929Z,14.40
2023-05-21T07:19:33.088Z,14.73
2023-05-21T07:22:01.162Z,13.27
2023-05-21T07:24:30.786Z,13.23
2023-05-21T07:26:58.705Z,13.83
2023-05-21T07:29:28.948Z,14.43
2023-05-21T07:31:56.921Z,13.90
2023-05-21T07:34:25.097Z,14.37
2023-05-21T07:36:53.200Z,15.47
2023-05-21T07:39:23.945Z,14.97
2023-05-21T07:41:53.611Z,15.43
2023-05-21T07:44:21.588Z,13.83
2023-05-21T07:46:49.802Z,16.20
2023-05-21T07:49:17.946Z,15.60
2023-05-21T07:51:53.410Z,15.07
2023-05-21T07:54:21.584Z,15.53
2023-05-21T07:56:49.875Z,16.13
2023-05-21T07:59:19.670Z,16.67
2023-05-21T08:02:00.015Z,17.10
2023-05-21T08:04:33.117Z,16.80
2023-05-21T08:07:01.078Z,17.47
2023-05-21T08:09:29.448Z,17.47
2023-05-21T08:11:57.445Z,16.40
2023-05-21T08:14:26.930Z,16.83
2023-05-21T08:16:54.993Z,18.03
2023-05-21T08:19:23.074Z,17.10
2023-05-21T08:21:52.852Z,16.10
2023-05-21T08:24:21.150Z,17.10
2023-05-21T08:26:50.885Z,16.30
2023-05-21T08:29:19.966Z,15.50
2023-05-21T08:31:49.554Z,16.57
2023-05-21T08:34:18.929Z,18.97
2023-05-21T08:36:48.058Z,15.70
2023-05-21T08:39:16.041Z,16.57
2023-05-21T08:41:49.684Z,17.53
2023-05-21T08:44:22.283Z,16.00
2023-05-21T08:46:52.367Z,16.17
2023-05-21T08:49:28.996Z,17.43
2023-05-21T08:51:57.316Z,15.43
2023-05-21T08:54:25.327Z,16.27
2023-05-21T08:56:54.565Z,17.67
2023-05-21T08:59:23.066Z,16.83
2023-05-21T09:01:53.984Z,17.40
2023-05-21T09:04:22.419Z,16.70
2023-05-21T09:06:51.012Z,17.27
2023-05-21T09:09:26.938Z,16.87
2023-05-21T09:11:55.305Z,17.43
2023-05-21T09:14:24.944Z,16.87
2023-05-21T09:16:54.495Z,17.67
2023-05-21T09:19:22.644Z,17.23
2023-05-21T09:21:52.865Z,16.50
2023-05-21T09:24:23.691Z,16.83
2023-05-21T09:26:52.488Z,18.07
2023-05-21T09:29:20.469Z,17.03
2023-05-21T09:31:48.405Z,16.97
2023-05-21T09:34:17.786Z,17.07
2023-05-21T09:36:46.041Z,16.23
2023-05-21T09:39:18.118Z,16.67
2023-05-21T09:41:46.110Z,16.57
2023-05-21T09:44:14.012Z,16.03
2023-05-21T09:46:42.885Z,15.80
2023-05-21T09:49:24.706Z,16.23
2023-05-21T09:51:56.404Z,15.60
2023-05-21T09:54:24.570Z,16.53
2023-05-21T09:56:53.646Z,15.90
2023-05-21T09:59:22.633Z,17.50
2023-05-21T10:01:53.178Z,16.00
2023-05-21T10:04:42.632Z,15.37
2023-05-21T10:07:10.843Z,15.60
2023-05-21T10:09:39.357Z,16.33
2023-05-21T10:12:08.403Z,14.47
2023-05-21T10:14:37.011Z,16.27
2023-05-21T10:17:07.428Z,15.43
2023-05-21T10:19:38.730Z,16.07
2023-05-21T10:22:07.657Z,14.87
2023-05-21T10:24:36.538Z,16.90
2023-05-21T10:27:04.969Z,17.40
2023-05-21T10:29:33.486Z,16.73
2023-05-21T10:32:03.036Z,15.57
2023-05-21T10:34:32.198Z,15.90
2023-05-21T10:37:03.721Z,16.63
2023-05-21T10:39:32.511Z,16.70
2023-05-21T10:42:13.028Z,15.70
2023-05-21T10:44:51.001Z,15.98
2023-05-21T10:47:42.121Z,15.32
2023-05-21T10:50:27.769Z,16.13
2023-05-21T10:53:10.675Z,16.67
2023-05-21T10:55:49.745Z,14.93
2023-05-21T10:58:40.939Z,14.90
2023-05-21T11:01:09.501Z,15.77
2023-05-21T11:03:38.268Z,15.68
2023-05-21T11:06:06.907Z,14.52
2023-05-21T11:08:37.647Z,16.38
2023-05-21T11:11:06.467Z,15.90
2023-05-21T11:13:49.898Z,15.45
2023-05-21T11:16:18.563Z,14.30
2023-05-21T11:19:03.109Z,13.75
2023-05-21T11:21:32.463Z,14.68
2023-05-21T11:24:08.416Z,14.35
2023-05-21T11:27:08.576Z,13.02
2023-05-21T11:29:41.758Z,13.23
2023-05-21T11:32:10.971Z,14.07
2023-05-21T11:34:40.669Z,13.88
2023-05-21T11:37:30.254Z,14.18
2023-05-21T11:40:21.606Z,13.75
2023-05-21T11:42:53.675Z,13.60
2023-05-21T11:45:23.310Z,13.48
2023-05-21T11:47:52.773Z,14.13
2023-05-21T11:50:21.241Z,14.25
2023-05-21T11:52:50.633Z,14.20
2023-05-21T11:55:26.087Z,12.30
2023-05-21T11:57:55.564Z,11.30
2023-05-21T12:00:23.658Z,13.77
2023-05-21T12:02:53.667Z,13.50
2023-05-21T12:05:24.278Z,14.23
2023-05-21T12:07:52.261Z,13.25
2023-05-21T12:10:24.490Z,13.25
2023-05-21T12:12:56.502Z,12.88
2023-05-21T12:15:26.372Z,12.50
2023-05-21T12:17:56.014Z,13.75
2023-05-21T12:20:24.556Z,13.48
2023-05-21T12:22:52.815Z,13.60
2023-05-21T12:25:21.294Z,13.77
2023-05-21T12:27:58.098Z,12.85
2023-05-21T12:30:26.998Z,14.10
2023-05-21T12:32:55.050Z,13.50
2023-05-21T12:35:24.637Z,12.93
2023-05-21T12:37:55.063Z,12.27
2023-05-21T12:40:22.947Z,13.25
2023-05-21T12:42:53.193Z,14.05
2023-05-21T12:45:22.888Z,13.77
2023-05-21T12:47:56.038Z,12.27
2023-05-21T12:50:25.273Z,12.85
2023-05-21T12:52:59.789Z,12.75
2023-05-21T12:55:37.251Z,11.82
2023-05-21T12:58:09.453Z,13.38
2023-05-21T13:00:38.468Z,12.10
2023-05-21T13:03:07.599Z,12.88
2023-05-21T13:05:36.293Z,13.88
2023-05-21T13:08:05.643Z,11.93
2023-05-21T13:10:33.817Z,13.25
2023-05-21T13:13:02.436Z,12.38
2023-05-21T13:15:32.103Z,12.20
2023-05-21T13:18:01.789Z,12.40
2023-05-21T13:20:30.216Z,13.32
2023-05-21T13:22:58.606Z,12.65
2023-05-21T13:25:29.325Z,13.57
2023-05-21T13:27:58.411Z,12.57
2023-05-21T13:30:28.836Z,12.73
2023-05-21T13:32:58.662Z,12.50
2023-05-21T13:35:30.463Z,12.73
2023-05-21T13:37:58.607Z,12.70
2023-05-21T13:40:27.064Z,13.57
2023-05-21T13:42:57.280Z,12.77
2023-05-21T13:45:29.582Z,13.82
2023-05-21T13:48:00.316Z,13.82
2023-05-21T13:50:28.753Z,13.50
2023-05-21T13:52:56.927Z,14.07
2023-05-21T13:55:25.304Z,14.02
2023-05-21T13:57:53.643Z,13.38
2023-05-21T14:00:22.173Z,13.35
2023-05-21T14:02:51.474Z,13.13
2023-05-21T14:05:21.053Z,13.48
2023-05-21T14:07:49.776Z,13.65
2023-05-21T14:10:18.449Z,14.07
2023-05-21T14:12:47.378Z,12.82
2023-05-21T14:15:16.206Z,12.82
2023-05-21T14:17:44.170Z,13.77
2023-05-21T14:20:12.974Z,14.43
2023-05-21T14:22:42.553Z,12.88
2023-05-21T14:25:11.059Z,13.98
2023-05-21T14:27:40.092Z,13.13
2023-05-21T14:30:10.301Z,13.68
2023-05-21T14:32:38.463Z,13.15
2023-05-21T14:35:07.062Z,12.98
2023-05-21T14:37:35.054Z,13.63
2023-05-21T14:40:05.613Z,13.55
2023-05-21T14:42:33.779Z,13.60
2023-05-21T14:45:16.808Z,14.30
2023-05-21T14:47:46.141Z,13.43
2023-05-21T14:50:14.934Z,13.23
2023-05-21T14:52:43.655Z,13.10
2023-05-21T14:55:13.940Z,14.23
2023-05-21T14:57:41.993Z,13.70
2023-05-21T15:00:11.672Z,14.93
2023-05-21T15:02:40.492Z,14.30
2023-05-21T15:05:09.331Z,13.25
2023-05-21T15:07:37.377Z,13.75
2023-05-21T15:10:06.178Z,13.90
2023-05-21T15:12:35.667Z,13.45
2023-05-21T15:15:03.825Z,12.88
2023-05-21T15:17:33.189Z,13.68
2023-05-21T15:20:04.445Z,13.90
2023-05-21T15:22:32.732Z,14.02
2023-05-21T15:25:01.995Z,13.82
2023-05-21T15:27:29.941Z,13.38
2023-05-21T15:29:59.585Z,13.50
2023-05-21T15:32:27.839Z,13.50
2023-05-21T15:34:55.899Z,13.32
2023-05-21T15:37:23.954Z,12.75
2023-05-21T15:39:53.469Z,12.15
2023-05-21T15:42:21.349Z,12.18
2023-05-21T15:44:49.432Z,12.77
2023-05-21T15:47:18.649Z,13.50
2023-05-21T15:49:46.641Z,14.23
2023-05-21T15:52:14.490Z,13.02
2023-05-21T15:54:42.404Z,12.57
2023-05-21T15:57:10.397Z,12.45
2023-05-21T15:59:38.343Z,12.45
2023-05-21T16:02:06.893Z,12.23
2023-05-21T16:04:36.252Z,13.05
2023-05-21T16:07:04.201Z,11.98
2023-05-21T16:09:32.172Z,11.30
2023-05-21T16:12:00.107Z,12.38
2023-05-21T16:14:29.428Z,13.23
2023-05-21T16:16:57.458Z,13.18
2023-05-21T16:19:25.674Z,13.55
2023-05-21T16:21:55.161Z,13.27
2023-05-21T16:24:24.024Z,12.93
2023-05-21T16:26:52.121Z,13.73
2023-05-21T16:29:21.987Z,13.57
2023-05-21T16:31:50.278Z,14.15
2023-05-21T16:34:18.338Z,13.95
2023-05-21T16:36:46.414Z,14.35
2023-05-21T16:39:16.004Z,14.10
2023-05-21T16:41:44.889Z,13.18
2023-05-21T16:44:12.802Z,13.05
2023-05-21T16:46:40.890Z,14.23
2023-05-21T16:49:08.925Z,14.95
2023-05-21T16:51:36.836Z,14.43
2023-05-21T16:54:06.102Z,14.32
2023-05-21T16:56:35.773Z,13.10
2023-05-21T16:59:03.831Z,14.73
2023-05-21T17:01:31.910Z,12.98
2023-05-21T17:04:00.126Z,14.15
2023-05-21T17:06:28.391Z,13.23
2023-05-21T17:08:56.621Z,14.15
2023-05-21T17:11:24.466Z,13.65
2023-05-21T17:13:54.041Z,12.75
2023-05-21T17:16:22.226Z,13.70
2023-05-21T17:18:51.462Z,12.60
2023-05-21T17:21:19.821Z,12.48
2023-05-21T17:23:47.880Z,12.50
2023-05-21T17:26:17.016Z,12.35
2023-05-21T17:28:45.037Z,12.40
2023-05-21T17:31:15.369Z,13.38
2023-05-21T17:33:43.507Z,12.57
2023-05-21T17:36:11.659Z,12.63
2023-05-21T17:38:39.578Z,12.07
2023-05-21T17:41:07.574Z,12.13
2023-05-21T17:43:35.453Z,11.70
2023-05-21T17:46:03.373Z,12.30
2023-05-21T17:48:32.649Z,12.63
2023-05-21T17:51:00.750Z,12.93
2023-05-21T17:53:28.986Z,12.02
2023-05-21T17:55:57.071Z,12.30
2023-05-21T17:58:25.095Z,11.30
2023-05-21T18:00:54.165Z,12.65
2023-05-21T18:03:22.219Z,11.32
2023-05-21T18:05:52.104Z,12.27
2023-05-21T18:08:20.138Z,12.00
2023-05-21T18:10:48.222Z,11.63
2023-05-21T18:13:16.436Z,12.70
2023-05-21T18:15:45.113Z,11.60
2023-05-21T18:18:19.822Z,11.05
2023-05-21T18:20:48.889Z,12.32
2023-05-21T18:23:18.518Z,11.25
2023-05-21T18:25:46.445Z,12.30
2023-05-21T18:28:17.175Z,11.48
2023-05-21T18:31:24.508Z,12.13
2023-05-21T18:33:56.279Z,12.43
2023-05-21T18:36:26.887Z,11.85
2023-05-21T18:38:58.054Z,12.45
2023-05-21T18:41:26.530Z,12.23
2023-05-21T18:43:55.830Z,12.25
2023-05-21T18:46:35.700Z,12.68
2023-05-21T18:49:07.010Z,12.45
2023-05-21T18:51:38.989Z,13.90
2023-05-21T18:54:13.451Z,21.35
2023-05-21T18:56:45.626Z,21.48
2023-05-21T18:59:14.400Z,20.13
2023-05-21T19:01:45.857Z,16.40
2023-05-21T19:04:15.229Z,14.07
2023-05-21T19:06:44.612Z,13.63
2023-05-21T19:09:14.711Z,13.25
2023-05-21T19:11:43.397Z,13.52
2023-05-21T19:14:14.316Z,13.73
2023-05-21T19:16:42.714Z,13.48
2023-05-21T19:19:10.872Z,13.88
2023-05-21T19:21:39.153Z,13.48
2023-05-21T19:24:08.367Z,12.95
2023-05-21T19:26:37.781Z,13.65
2023-05-21T19:29:05.857Z,11.82
2023-05-21T19:31:35.044Z,12.30
2023-05-21T19:34:04.584Z,11.88
2023-05-21T19:36:48.461Z,11.98
2023-05-21T19:39:20.014Z,11.30
2023-05-21T19:41:49.633Z,11.90
2023-05-21T19:44:17.637Z,11.45
2023-05-21T19:46:45.691Z,12.05
2023-05-21T19:49:14.572Z,12.10
2023-05-21T19:51:42.640Z,12.50
2023-05-21T19:54:10.742Z,12.43
2023-05-21T19:56:39.106Z,11.40
2023-05-21T19:59:08.740Z,11.10
2023-05-21T20:01:39.355Z,11.38
2023-05-21T20:04:08.091Z,10.18
2023-05-21T20:06:36.178Z,10.02
2023-05-21T20:09:04.449Z,10.48
2023-05-21T20:11:32.649Z,9.98
2023-05-21T20:14:03.026Z,10.68
2023-05-21T20:16:33.448Z,10.27
2023-05-21T20:19:02.017Z,10.40
2023-05-21T20:21:31.726Z,9.57
2023-05-21T20:23:59.970Z,10.18
2023-05-21T20:26:27.951Z,10.55
2023-05-21T20:28:56.040Z,10.27
2023-05-21T20:31:26.048Z,9.52
2023-05-21T20:33:55.568Z,9.77
2023-05-21T20:36:23.820Z,9.30
2023-05-21T20:38:51.893Z,9.18
2023-05-21T20:41:21.768Z,9.45
2023-05-21T20:43:50.029Z,8.48
2023-05-21T20:46:18.526Z,9.73
2023-05-21T20:48:48.091Z,8.98
2023-05-21T20:51:17.541Z,8.90
2023-05-21T20:53:45.451Z,9.15
2023-05-21T20:56:14.847Z,8.63
2023-05-21T20:58:42.753Z,9.07
2023-05-21T21:01:10.938Z,8.50
2023-05-21T21:03:41.498Z,8.70
2023-05-21T21:06:09.908Z,8.90
2023-05-21T21:08:40.370Z,8.38
2023-05-21T21:11:09.697Z,8.23
2023-05-21T21:13:37.711Z,8.82
2023-05-21T21:16:06.639Z,8.97
2023-05-21T21:18:34.825Z,9.00
2023-05-21T21:21:02.893Z,8.95
2023-05-21T21:23:30.873Z,8.80
2023-05-21T21:26:01.100Z,7.97
2023-05-21T21:28:29.128Z,8.70
2023-05-21T21:30:57.161Z,8.53
2023-05-21T21:33:26.876Z,8.90
2023-05-21T21:35:54.976Z,8.37
2023-05-21T21:38:25.540Z,9.40
2023-05-21T21:40:54.508Z,8.37
2023-05-21T21:43:23.822Z,9.77
2023-05-21T21:45:51.759Z,9.37
2023-05-21T21:48:22.400Z,8.47
2023-05-21T21:50:50.310Z,8.57
2023-05-21T21:53:18.291Z,9.50
2023-05-21T21:55:46.173Z,9.40
2023-05-21T21:58:14.142Z,8.23
2023-05-21T22:00:44.054Z,9.10
2023-05-21T22:03:14.575Z,8.43
2023-05-21T22:05:42.881Z,8.73
2023-05-21T22:08:10.855Z,8.57
2023-05-21T22:10:39.345Z,8.83
2023-05-21T22:13:07.595Z,8.90
2023-05-21T22:15:36.051Z,8.13
2023-05-21T22:18:05.793Z,8.10
2023-05-21T22:20:35.174Z,8.70
2023-05-21T22:23:03.306Z,8.37
2023-05-21T22:25:31.456Z,9.37
2023-05-21T22:27:59.382Z,8.20
2023-05-21T22:30:27.313Z,8.47
2023-05-21T22:32:55.212Z,8.40
2023-05-21T22:35:24.621Z,8.07
2023-05-21T22:37:52.514Z,8.73
2023-05-21T22:40:20.424Z,8.77
2023-05-21T22:42:48.567Z,8.27
2023-05-21T22:45:17.073Z,8.87
2023-05-21T22:47:45.037Z,8.43
2023-05-21T22:50:13.038Z,9.00
2023-05-21T22:52:43.325Z,8.13
2023-05-21T22:55:11.794Z,8.00
2023-05-21T22:57:40.848Z,8.80
2023-05-21T23:00:10.851Z,8.73
2023-05-21T23:02:38.798Z,8.53
2023-05-21T23:05:07.226Z,8.10
2023-05-21T23:07:35.178Z,9.00
2023-05-21T23:10:04.818Z,8.60
2023-05-21T23:12:32.665Z,7.33
2023-05-21T23:15:00.492Z,7.90
2023-05-21T23:17:28.590Z,8.37
2023-05-21T23:19:56.606Z,8.33
2023-05-21T23:22:24.519Z,8.90
2023-05-21T23:24:54.222Z,8.67
2023-05-21T23:27:24.033Z,9.23
2023-05-21T23:29:52.023Z,8.23
2023-05-21T23:32:19.960Z,8.63
2023-05-21T23:34:48.365Z,8.50
2023-05-21T23:37:16.410Z,8.70
2023-05-21T23:39:48.134Z,9.03
2023-05-21T23:42:16.489Z,8.40
2023-05-21T23:44:45.890Z,7.67
2023-05-21T23:47:13.736Z,8.27
2023-05-21T23:49:41.807Z,8.30
2023-05-21T23:52:13.076Z,7.83
2023-05-21T23:54:41.664Z,8.57
2023-05-21T23:57:09.553Z,8.93
2023-05-21T23:59:37.539Z,8.97
